Time;durP1;ratioP1;P1;durP2;ratioP2;P2;SDS_P1;SDS_P2;PMS_P1;PMS_P2;Temp;Humidity;BMP_temperature;BMP_pressure;BME280_temperature;BME280_humidity;BME280_pressure;Samples;Min_cycle;Max_cycle;Signal;HPM_P1;HPM_P2
2023/10/01 00:00:59;;;;;;;5.57;5.10;;;;;;;24.14;43.42;95455.72;6064009;28;109029;-61
2023/10/01 00:04:04;;;;;;;5.00;4.60;;;;;;;24.15;43.72;95454.63;6063963;28;109369;-61
2023/10/01 00:07:08;;;;;;;4.60;4.30;;;;;;;24.14;43.83;95448.50;6052652;28;109774;-61
2023/10/01 00:10:13;;;;;;;5.37;4.97;;;;;;;24.13;43.74;95443.44;6063920;28;108986;-60
2023/10/01 00:13:20;;;;;;;4.50;4.10;;;;;;;24.11;44.30;95445.66;6063851;28;109023;-60
2023/10/01 00:16:25;;;;;;;4.97;4.57;;;;;;;24.12;43.87;95449.91;6063626;28;109033;-60
2023/10/01 00:19:28;;;;;;;4.93;4.53;;;;;;;24.09;43.88;95442.50;6053372;28;111196;-60
2023/10/01 00:22:33;;;;;;;4.70;4.30;;;;;;;24.11;43.91;95432.28;6063879;28;108995;-61
2023/10/01 00:25:37;;;;;;;4.70;4.30;;;;;;;24.11;43.78;95437.63;6063546;28;108958;-61
2023/10/01 00:28:40;;;;;;;4.53;4.13;;;;;;;24.10;43.49;95433.38;6060631;28;108857;-59
2023/10/01 00:31:45;;;;;;;5.10;4.70;;;;;;;24.10;43.71;95438.72;6057393;28;109397;-61
2023/10/01 00:34:49;;;;;;;4.90;4.47;;;;;;;24.10;43.89;95438.72;6063183;28;108955;-57
2023/10/01 00:37:52;;;;;;;4.80;4.40;;;;;;;24.10;43.92;95433.38;6062731;28;108920;-56
2023/10/01 00:40:56;;;;;;;4.60;4.20;;;;;;;24.07;43.91;95434.78;6052503;28;109264;-56
2023/10/01 00:44:02;;;;;;;4.97;4.57;;;;;;;24.08;43.63;95433.69;6063588;28;108856;-56
2023/10/01 00:47:07;;;;;;;4.77;4.37;;;;;;;24.08;43.64;95438.25;6063325;28;109113;-56
2023/10/01 00:50:12;;;;;;;4.75;4.35;;;;;;;24.07;43.96;95426.78;6063176;28;108880;-56
2023/10/01 00:53:16;;;;;;;5.07;4.57;;;;;;;24.06;43.50;95435.09;6052278;28;109412;-56
2023/10/01 00:56:21;;;;;;;4.80;4.40;;;;;;;24.07;43.85;95431.31;6062310;28;108904;-56
2023/10/01 00:59:24;;;;;;;4.40;4.10;;;;;;;24.06;43.95;95435.09;6063295;28;108764;-56
2023/10/01 01:02:30;;;;;;;4.80;4.40;;;;;;;24.06;43.88;95424.41;6063222;28;108869;-57
2023/10/01 01:05:36;;;;;;;4.90;4.50;;;;;;;24.05;43.92;95428.19;6052827;28;110069;-56
2023/10/01 01:08:47;;;;;;;4.45;4.15;;;;;;;24.06;43.90;95425.19;6062367;28;109037;-56
2023/10/01 01:11:50;;;;;;;4.37;4.07;;;;;;;24.05;43.83;95430.84;6062936;28;108916;-56
2023/10/01 01:14:54;;;;;;;4.30;4.00;;;;;;;24.06;44.05;95427.06;6052929;28;109758;-57
2023/10/01 01:18:00;;;;;;;4.70;4.30;;;;;;;24.06;43.60;95433.22;6062179;28;109035;-56
2023/10/01 01:21:09;;;;;;;4.30;3.90;;;;;;;24.06;43.90;95435.88;6062467;28;109449;-56
2023/10/01 01:24:14;;;;;;;4.50;4.10;;;;;;;24.04;43.67;95435.41;6062753;28;108858;-56
2023/10/01 01:27:18;;;;;;;4.70;4.30;;;;;;;24.04;43.97;95431.94;6051818;28;109183;-56
2023/10/01 01:30:26;;;;;;;4.32;3.92;;;;;;;24.00;43.85;95426.41;6062923;28;108923;-56
2023/10/01 01:33:33;;;;;;;4.50;3.95;;;;;;;24.03;43.89;95441.06;6062795;28;108860;-56
2023/10/01 01:36:38;;;;;;;4.20;3.90;;;;;;;24.02;43.92;95431.44;6062699;28;108819;-57
2023/10/01 01:39:48;;;;;;;4.57;4.18;;;;;;;24.03;43.43;95435.72;6051303;28;108912;-57
2023/10/01 01:42:56;;;;;;;4.40;4.00;;;;;;;24.02;43.92;95428.78;6062654;28;108759;-56
2023/10/01 01:46:03;;;;;;;4.50;4.20;;;;;;;24.01;43.84;95433.31;6062633;28;108905;-61
2023/10/01 01:49:09;;;;;;;4.47;4.07;;;;;;;24.00;43.49;95429.09;6051700;28;109364;-60
2023/10/01 01:52:13;;;;;;;4.60;4.20;;;;;;;24.00;44.00;95439.00;6062106;28;109246;-60
2023/10/01 01:55:26;;;;;;;4.80;4.40;;;;;;;23.97;43.89;95435.03;6061071;28;109169;-60
2023/10/01 01:58:32;;;;;;;4.40;4.10;;;;;;;23.99;43.91;95430.16;6062162;28;108977;-61
2023/10/01 02:01:36;;;;;;;4.77;4.37;;;;;;;23.99;43.81;95432.03;6051701;28;108927;-60
2023/10/01 02:04:58;;;;;;;4.72;4.32;;;;;;;24.00;43.71;95433.63;6061499;28;109003;-60
2023/10/01 02:08:06;;;;;;;4.20;3.90;;;;;;;23.99;43.54;95429.34;6066068;28;108830;-60
2023/10/01 02:11:13;;;;;;;4.78;4.38;;;;;;;23.97;43.88;95427.00;6060629;28;109870;-60
2023/10/01 02:17:35;;;;;;;4.30;4.00;;;;;;;23.92;43.75;95429.81;6065628;28;109194;-61
2023/10/01 02:20:40;;;;;;;4.37;4.07;;;;;;;23.95;43.99;95428.41;6065885;28;109328;-60
2023/10/01 02:23:43;;;;;;;4.25;3.85;;;;;;;23.95;44.13;95431.06;6055021;28;108988;-61
2023/10/01 02:26:52;;;;;;;4.40;4.00;;;;;;;23.95;43.82;95429.19;6066289;28;108980;-61
2023/10/01 02:30:13;;;;;;;4.30;4.00;;;;;;;23.94;44.01;95421.50;6065871;28;109033;-60
2023/10/01 02:33:17;;;;;;;4.73;4.33;;;;;;;23.92;44.07;95429.81;6066438;28;109131;-60
2023/10/01 02:36:22;;;;;;;4.30;4.00;;;;;;;23.94;43.57;95418.81;6055967;28;109761;-60
2023/10/01 02:39:28;;;;;;;4.40;4.00;;;;;;;23.92;43.84;95421.78;6065974;28;109271;-61
2023/10/01 02:42:32;;;;;;;4.47;4.07;;;;;;;23.90;43.85;95422.09;6064211;28;109017;-61
2023/10/01 02:45:41;;;;;;;4.10;3.80;;;;;;;23.82;43.47;95409.47;6060362;28;109007;-60
2023/10/01 02:48:47;;;;;;;3.80;3.50;;;;;;;23.79;43.71;95399.41;6062957;28;109008;-60
2023/10/01 02:51:50;;;;;;;4.00;3.70;;;;;;;23.88;43.68;95418.97;6065144;28;108941;-61
2023/10/01 02:54:54;;;;;;;4.37;4.03;;;;;;;23.86;43.58;95418.47;6064967;28;109024;-56
2023/10/01 02:58:17;;;;;;;4.90;3.90;;;;;;;23.88;43.93;95424.31;6054120;28;108912;-57
2023/10/01 03:01:21;;;;;;;4.55;4.15;;;;;;;23.86;43.82;95425.72;6065295;28;108816;-56
2023/10/01 03:04:27;;;;;;;4.40;4.00;;;;;;;23.83;43.57;95415.59;6065532;28;108864;-56
2023/10/01 03:07:37;;;;;;;4.60;4.20;;;;;;;23.86;43.66;95420.38;6065316;28;109004;-56
2023/10/01 03:10:46;;;;;;;4.20;3.90;;;;;;;23.84;43.60;95423.31;6055011;28;108908;-55
2023/10/01 03:13:54;;;;;;;4.57;4.07;;;;;;;23.85;43.75;95418.75;6064472;28;108914;-59
2023/10/01 03:16:58;;;;;;;4.30;4.00;;;;;;;23.86;43.49;95415.03;6064708;28;108850;-57
2023/10/01 03:20:12;;;;;;;4.60;4.20;;;;;;;23.85;44.01;95414.19;6054534;28;108908;-57
2023/10/01 03:23:25;;;;;;;4.03;3.73;;;;;;;23.86;43.59;95415.03;6065281;28;109313;-57
2023/10/01 03:26:33;;;;;;;4.40;4.00;;;;;;;23.82;43.98;95420.16;6064240;28;109075;-57
2023/10/01 03:29:40;;;;;;;4.40;4.10;;;;;;;23.84;44.09;95417.97;6064585;28;108918;-58
2023/10/01 03:32:46;;;;;;;4.60;4.20;;;;;;;23.86;43.79;95421.16;6054062;28;110018;-57
2023/10/01 03:35:49;;;;;;;4.30;4.00;;;;;;;23.86;43.88;95425.72;6064806;28;108923;-56
2023/10/01 03:38:57;;;;;;;4.40;4.00;;;;;;;23.82;43.48;95416.72;6064838;28;108921;-56
2023/10/01 03:42:10;;;;;;;4.63;4.22;;;;;;;23.83;43.99;95420.97;6059507;28;108871;-56
2023/10/01 03:45:51;;;;;;;4.17;3.87;;;;;;;23.83;43.82;95426.31;6057929;28;109453;-57
2023/10/01 03:48:58;;;;;;;4.30;4.00;;;;;;;23.83;43.72;95421.75;6064028;28;109088;-56
2023/10/01 03:52:02;;;;;;;4.25;3.90;;;;;;;23.82;43.73;95417.50;6064279;28;108770;-55
2023/10/01 03:55:26;;;;;;;4.40;4.00;;;;;;;23.80;43.57;95417.00;6052698;28;108907;-56
2023/10/01 03:58:36;;;;;;;4.73;4.33;;;;;;;23.80;43.81;95422.38;6046713;28;109107;-56
2023/10/01 04:01:58;;;;;;;4.25;3.95;;;;;;;23.79;43.61;95426.13;6064260;28;109231;-56
2023/10/01 04:05:05;;;;;;;4.13;3.83;;;;;;;23.79;44.07;95434.16;6058681;28;108814;-56
2023/10/01 04:08:10;;;;;;;4.28;3.97;;;;;;;23.80;43.41;95432.25;6058297;28;108987;-57
2023/10/01 04:11:16;;;;;;;4.32;4.03;;;;;;;23.79;43.56;95436.81;6064037;28;108963;-57
2023/10/01 04:14:19;;;;;;;4.60;4.20;;;;;;;23.75;43.79;95427.06;6063421;28;108975;-57
2023/10/01 04:17:25;;;;;;;4.30;4.00;;;;;;;23.82;43.50;95430.06;6052837;28;109313;-56
2023/10/01 04:20:29;;;;;;;4.50;4.10;;;;;;;23.81;43.36;95434.63;6063930;28;108954;-56
2023/10/01 04:23:35;;;;;;;4.10;3.80;;;;;;;23.80;43.85;95441.06;6063580;28;108962;-57
2023/10/01 04:26:38;;;;;;;4.13;3.83;;;;;;;23.78;43.41;95429.91;6063832;28;108933;-57
2023/10/01 04:29:46;;;;;;;4.30;4.00;;;;;;;23.77;43.86;95439.00;6051799;28;108931;-57
2023/10/01 04:32:51;;;;;;;4.33;3.93;;;;;;;23.77;43.50;95447.03;6063936;28;108956;-57
2023/10/01 04:35:55;;;;;;;4.20;3.80;;;;;;;23.77;43.96;95436.34;6063204;28;108956;-57
2023/10/01 04:39:00;;;;;;;4.55;4.15;;;;;;;23.76;43.76;95450.81;6058423;28;109009;-57
2023/10/01 04:42:03;;;;;;;4.10;3.80;;;;;;;23.77;43.75;95454.25;6057522;28;109347;-57
2023/10/01 04:45:22;;;;;;;4.10;3.80;;;;;;;23.77;43.86;95455.06;6063280;28;109003;-57
2023/10/01 04:48:28;;;;;;;4.70;4.30;;;;;;;23.77;43.91;95462.28;6062157;28;108906;-57
2023/10/01 04:51:44;;;;;;;4.10;3.80;;;;;;;23.75;43.55;95465.25;6053400;28;110140;-57
2023/10/01 04:54:49;;;;;;;4.10;3.80;;;;;;;23.76;43.43;95466.84;6062117;28;108942;-57
2023/10/01 04:57:53;;;;;;;4.25;3.85;;;;;;;23.75;43.42;95470.59;6062792;28;109024;-56
2023/10/01 05:00:57;;;;;;;4.20;3.90;;;;;;;23.77;43.70;95478.31;6062444;28;108949;-55
2023/10/01 05:04:01;;;;;;;4.03;3.72;;;;;;;23.76;43.48;95474.84;6052289;28;109049;-57
2023/10/01 05:07:05;;;;;;;4.43;4.03;;;;;;;23.77;43.81;95478.31;6062777;28;108906;-57
2023/10/01 05:10:09;;;;;;;4.20;3.90;;;;;;;23.76;43.42;95487.44;6063187;28;109160;-57
2023/10/01 05:13:13;;;;;;;4.23;3.90;;;;;;;23.76;43.92;95485.53;6057391;28;108937;-56
2023/10/01 05:16:18;;;;;;;4.80;4.40;;;;;;;23.75;43.60;95491.97;6057808;28;109258;-56
2023/10/01 05:19:24;;;;;;;4.70;4.30;;;;;;;23.76;43.45;95493.56;6061823;28;109012;-57
2023/10/01 05:22:29;;;;;;;4.40;4.00;;;;;;;23.76;43.49;95498.91;6063206;28;108838;-56
2023/10/01 05:25:33;;;;;;;4.20;3.90;;;;;;;23.75;43.42;95497.31;6052060;28;108921;-56
2023/10/01 05:28:41;;;;;;;4.05;3.75;;;;;;;23.75;43.44;95499.22;6062642;28;109004;-56
2023/10/01 05:31:45;;;;;;;4.80;4.40;;;;;;;23.74;43.60;95498.44;6062054;28;109293;-56
2023/10/01 05:34:50;;;;;;;4.40;4.10;;;;;;;23.76;43.22;95498.13;6062225;28;108998;-56
2023/10/01 05:37:53;;;;;;;4.63;4.23;;;;;;;23.76;43.18;95495.44;6052336;28;109691;-57
2023/10/01 05:40:56;;;;;;;4.30;3.90;;;;;;;23.75;43.33;95500.00;6064417;28;109213;-57
2023/10/01 05:44:01;;;;;;;4.30;4.00;;;;;;;23.74;43.93;95495.75;6066887;28;108865;-56
2023/10/01 05:47:05;;;;;;;4.30;3.90;;;;;;;23.75;43.26;95494.66;6062103;28;109308;-59
2023/10/01 05:50:13;;;;;;;4.10;3.80;;;;;;;23.75;43.38;95494.66;6059386;28;108997;-58
2023/10/01 05:53:18;;;;;;;4.20;3.90;;;;;;;23.72;43.68;95495.28;6066330;28;108958;-58
2023/10/01 05:56:22;;;;;;;4.25;3.95;;;;;;;23.77;43.12;95494.34;6065177;28;109850;-57
2023/10/01 05:59:26;;;;;;;4.07;3.78;;;;;;;23.77;43.23;95489.78;6055668;28;109165;-57
2023/10/01 06:02:46;;;;;;;3.90;3.60;;;;;;;23.78;43.16;95486.03;6066589;28;108889;-57
2023/10/01 06:05:57;;;;;;;4.20;3.90;;;;;;;23.83;43.36;95485.09;6065941;28;109034;-57
2023/10/01 06:09:01;;;;;;;4.00;3.70;;;;;;;23.91;43.28;95492.41;6066311;28;108983;-57
2023/10/01 06:12:05;;;;;;;4.38;3.97;;;;;;;23.99;43.18;95493.53;6055839;28;111522;-57
2023/10/01 06:15:11;;;;;;;4.10;3.80;;;;;;;24.05;42.76;95492.34;6066299;28;108936;-58
2023/10/01 06:18:15;;;;;;;3.90;3.60;;;;;;;24.15;42.97;95492.84;6066421;28;108817;-56
2023/10/01 06:21:23;;;;;;;4.03;3.72;;;;;;;24.25;42.56;95496.38;6060207;28;109812;-56
2023/10/01 06:24:27;;;;;;;3.97;3.67;;;;;;;24.34;42.45;95499.84;6060331;28;109292;-56
2023/10/01 06:27:30;;;;;;;4.20;3.80;;;;;;;24.43;42.36;95498.81;6066240;28;108869;-56
2023/10/01 06:30:34;;;;;;;3.90;3.60;;;;;;;24.52;42.08;95498.03;6065919;28;109243;-57
2023/10/01 06:33:38;;;;;;;4.20;3.80;;;;;;;24.64;42.04;95507.03;6055691;28;110573;-56
2023/10/01 06:36:43;;;;;;;4.07;3.78;;;;;;;24.71;41.71;95510.09;6065602;28;108943;-55
2023/10/01 06:39:47;;;;;;;3.50;3.20;;;;;;;24.79;41.48;95516.56;6065820;28;108927;-57
2023/10/01 06:42:50;;;;;;;3.77;3.47;;;;;;;24.87;41.36;95513.13;6065876;28;109497;-56
2023/10/01 06:45:54;;;;;;;4.00;3.70;;;;;;;24.96;41.34;95510.47;6054797;28;109725;-57
2023/10/01 06:48:59;;;;;;;3.70;3.40;;;;;;;25.03;41.60;95510.78;6065683;28;109195;-57
2023/10/01 06:52:04;;;;;;;3.90;3.60;;;;;;;25.07;41.25;95512.53;6063981;28;109102;-56
2023/10/01 06:55:25;;;;;;;3.63;3.33;;;;;;;25.14;41.18;95514.75;6060508;28;109918;-57
2023/10/01 06:58:29;;;;;;;3.72;3.42;;;;;;;25.21;41.34;95512.41;6060138;28;108956;-57
2023/10/01 07:01:42;;;;;;;4.17;3.87;;;;;;;25.25;41.34;95513.34;6065448;28;109241;-56
2023/10/01 07:04:56;;;;;;;3.70;3.40;;;;;;;25.30;40.83;95520.44;6065281;28;108804;-57
2023/10/01 07:08:18;;;;;;;3.77;3.47;;;;;;;25.35;41.21;95526.44;6054869;28;109953;-56
2023/10/01 07:11:23;;;;;;;3.90;3.60;;;;;;;25.36;41.10;95516.50;6064709;28;108905;-56
2023/10/01 07:14:38;;;;;;;4.00;3.70;;;;;;;25.41;40.90;95516.38;6065226;28;109181;-56
2023/10/01 07:17:42;;;;;;;4.32;3.92;;;;;;;25.47;41.01;95522.34;6062732;28;108865;-57
2023/10/01 07:20:49;;;;;;;3.60;3.30;;;;;;;25.50;40.82;95524.41;6058215;28;108857;-57
2023/10/01 07:23:55;;;;;;;4.10;3.70;;;;;;;25.58;40.95;95524.41;6064566;28;109222;-56
2023/10/01 07:27:03;;;;;;;4.00;3.70;;;;;;;25.66;40.81;95523.59;6064877;28;108931;-57
2023/10/01 07:30:08;;;;;;;3.90;3.60;;;;;;;25.69;40.41;95525.63;6054044;28;108932;-56
2023/10/01 07:33:11;;;;;;;3.75;3.45;;;;;;;25.72;40.48;95531.50;6064885;28;108870;-56
2023/10/01 07:36:17;;;;;;;4.10;3.80;;;;;;;25.76;40.75;95527.06;6063826;28;109100;-57
2023/10/01 07:39:22;;;;;;;4.22;3.83;;;;;;;25.78;40.63;95535.59;6064682;28;108898;-56
2023/10/01 07:42:25;;;;;;;4.07;3.78;;;;;;;25.83;40.32;95527.38;6054256;28;108907;-57
2023/10/01 07:45:30;;;;;;;3.93;3.63;;;;;;;25.87;40.53;95528.31;6064843;28;108902;-57
2023/10/01 07:48:33;;;;;;;4.30;3.67;;;;;;;25.90;40.52;95530.38;6064196;28;108929;-58
2023/10/01 07:51:38;;;;;;;4.30;4.00;;;;;;;25.85;40.70;95531.31;6047482;28;109009;-58
2023/10/01 07:54:43;;;;;;;3.83;3.53;;;;;;;25.84;40.63;95534.31;6029380;28;109093;-57
2023/10/01 07:57:48;;;;;;;3.60;3.30;;;;;;;25.86;40.91;95532.88;6063854;28;108945;-58
2023/10/01 08:00:59;;;;;;;3.72;3.42;;;;;;;25.87;40.98;95523.72;6064284;28;108850;-57
2023/10/01 08:04:06;;;;;;;3.90;3.60;;;;;;;25.86;40.68;95526.72;6052589;28;109239;-57
2023/10/01 08:07:15;;;;;;;4.03;3.63;;;;;;;25.84;41.03;95519.00;6063750;28;109220;-57
2023/10/01 08:10:20;;;;;;;4.07;3.70;;;;;;;25.87;40.74;95522.94;6063693;28;109048;-57
2023/10/01 08:13:24;;;;;;;3.50;3.20;;;;;;;25.90;40.71;95528.47;6063813;28;108959;-57
2023/10/01 08:16:29;;;;;;;3.67;3.37;;;;;;;25.90;40.67;95535.72;6053821;28;109211;-57
2023/10/01 08:19:44;;;;;;;3.87;3.57;;;;;;;25.91;40.63;95531.94;6064218;28;108953;-57
2023/10/01 08:29:27;;;;;;;3.80;3.50;;;;;;;25.94;40.41;95523.25;6057604;28;108950;-58
2023/10/01 08:32:38;;;;;;;3.50;3.20;;;;;;;25.91;40.43;95524.69;6063968;28;109001;-57
2023/10/01 08:35:56;;;;;;;4.10;3.40;;;;;;;25.91;40.71;95527.38;6063531;28;109260;-58
2023/10/01 08:42:29;;;;;;;3.70;3.40;;;;;;;25.90;40.74;95525.78;6048424;28;109105;-56
2023/10/01 08:45:38;;;;;;;3.95;3.65;;;;;;;25.90;40.98;95525.00;6063510;28;109174;-56
2023/10/01 08:48:43;;;;;;;3.90;3.60;;;;;;;25.88;40.89;95530.69;6059015;28;108943;-57
2023/10/01 08:51:47;;;;;;;3.53;3.22;;;;;;;25.86;40.47;95522.16;6057468;28;108974;-56
2023/10/01 08:54:53;;;;;;;3.63;3.33;;;;;;;25.83;40.78;95527.38;6062755;28;108877;-56
2023/10/01 08:58:13;;;;;;;3.58;3.28;;;;;;;25.81;41.09;95527.69;6061790;28;108985;-57
2023/10/01 09:01:20;;;;;;;3.60;3.30;;;;;;;25.80;40.95;95526.13;6052007;28;108961;-56
2023/10/01 09:04:44;;;;;;;3.90;3.60;;;;;;;25.79;41.34;95523.75;6063253;28;108951;-56
2023/10/01 09:07:50;;;;;;;3.72;3.42;;;;;;;25.76;40.94;95529.75;6062978;28;108916;-56
2023/10/01 09:10:54;;;;;;;3.90;3.60;;;;;;;25.76;40.97;95535.91;6063342;28;108936;-56
2023/10/01 09:14:14;;;;;;;3.60;3.30;;;;;;;25.68;41.42;95516.03;6052319;28;109449;-55
2023/10/01 09:17:24;;;;;;;3.50;3.20;;;;;;;25.73;40.91;95519.66;6070614;28;108972;-55
2023/10/01 09:20:39;;;;;;;3.60;3.30;;;;;;;25.74;41.15;95523.94;6070922;28;108878;-55
2023/10/01 09:23:55;;;;;;;3.70;3.40;;;;;;;25.75;41.11;95522.81;6060280;28;109134;-55
2023/10/01 09:27:08;;;;;;;3.53;3.22;;;;;;;25.77;41.02;95518.72;6070739;28;108766;-56
2023/10/01 09:30:26;;;;;;;3.40;3.10;;;;;;;25.79;40.93;95526.44;6070009;28;108985;-56
2023/10/01 09:33:32;;;;;;;3.90;3.60;;;;;;;25.77;40.97;95531.31;6047053;28;108839;-55
2023/10/01 09:36:45;;;;;;;3.63;3.33;;;;;;;25.74;40.75;95519.34;6059246;28;109265;-56
2023/10/01 09:39:49;;;;;;;3.50;3.20;;;;;;;25.78;40.85;95522.19;6070904;28;108841;-56
2023/10/01 09:42:56;;;;;;;3.50;3.20;;;;;;;25.79;41.30;95534.47;6070472;28;108969;-57
2023/10/01 09:46:02;;;;;;;3.70;3.40;;;;;;;25.77;40.61;95534.00;6065181;28;108916;-56
2023/10/01 09:49:06;;;;;;;3.70;3.40;;;;;;;25.76;41.17;95530.53;6067766;28;109072;-57
2023/10/01 09:52:12;;;;;;;3.60;3.30;;;;;;;25.78;41.10;95530.22;6070387;28;109233;-56
2023/10/01 09:55:26;;;;;;;3.88;3.58;;;;;;;25.74;41.20;95522.03;6069485;28;108917;-56
2023/10/01 09:58:30;;;;;;;3.90;3.50;;;;;;;25.76;41.07;95522.50;6059004;28;109191;-56
2023/10/01 10:01:36;;;;;;;3.60;3.30;;;;;;;25.77;41.07;95517.94;6069460;28;108949;-57
2023/10/01 10:04:40;;;;;;;3.58;3.28;;;;;;;25.77;41.08;95512.56;6069583;28;108930;-57
2023/10/01 10:07:44;;;;;;;3.38;3.08;;;;;;;25.72;41.12;95505.47;6069781;28;109309;-57
2023/10/01 10:10:52;;;;;;;3.30;3.00;;;;;;;25.76;40.98;95521.72;6059854;28;109488;-56
2023/10/01 10:13:57;;;;;;;3.40;3.10;;;;;;;25.75;41.10;95515.56;6069923;28;108922;-57
2023/10/01 10:17:18;;;;;;;3.35;3.05;;;;;;;25.77;41.08;95507.19;6069450;28;109115;-56
2023/10/01 10:20:30;;;;;;;3.50;3.20;;;;;;;25.73;41.17;95501.69;6058966;28;109483;-57
2023/10/01 10:23:55;;;;;;;3.33;3.03;;;;;;;25.73;41.11;95490.19;6069800;28;108921;-56
2023/10/01 10:27:01;;;;;;;5.50;4.20;;;;;;;25.63;41.79;95493.97;6066307;28;108941;-61
2023/10/01 10:30:14;;;;;;;6.68;6.07;;;;;;;25.53;40.96;95484.34;6065874;28;108829;-60
2023/10/01 10:33:30;;;;;;;8.00;6.30;;;;;;;25.52;41.37;95482.78;6054318;28;109188;-60
2023/10/01 10:36:49;;;;;;;8.83;6.67;;;;;;;25.49;41.58;95480.72;6064092;28;109566;-60
2023/10/01 10:40:12;;;;;;;9.10;8.18;;;;;;;25.46;42.06;95475.22;6065306;28;109004;-61
2023/10/01 10:43:19;;;;;;;10.73;8.82;;;;;;;25.41;41.66;95478.84;6051838;28;109281;-61
2023/10/01 10:46:23;;;;;;;10.27;9.00;;;;;;;25.37;41.60;95468.00;6064968;28;109312;-60
2023/10/01 10:49:51;;;;;;;12.57;9.35;;;;;;;25.32;41.83;95470.00;6065284;28;108953;-59
2023/10/01 10:52:57;;;;;;;12.32;10.10;;;;;;;25.30;41.80;95470.31;6064856;28;108919;-59
2023/10/01 10:56:02;;;;;;;14.55;10.55;;;;;;;25.07;41.58;95458.19;6054304;28;109202;-60
2023/10/01 10:59:06;;;;;;;26.40;10.60;;;;;;;24.73;39.98;95457.03;6064837;28;108921;-59
2023/10/01 11:02:09;;;;;;;14.03;10.10;;;;;;;24.67;39.70;95454.78;6064764;28;108909;-59
2023/10/01 11:05:15;;;;;;;12.18;10.98;;;;;;;24.60;39.45;95449.13;6059847;28;108954;-59
2023/10/01 11:08:25;;;;;;;16.95;11.77;;;;;;;24.52;39.55;95447.19;6058728;28;108931;-61
2023/10/01 11:11:39;;;;;;;14.00;11.30;;;;;;;24.56;39.27;95438.25;6064201;28;108857;-61
2023/10/01 11:14:56;;;;;;;12.73;10.00;;;;;;;24.53;40.09;95443.41;6065126;28;109006;-61
2023/10/01 11:18:01;;;;;;;11.80;10.03;;;;;;;24.55;39.79;95441.25;6059196;28;109472;-61
2023/10/01 11:21:07;;;;;;;12.17;9.80;;;;;;;24.60;39.35;95439.19;6064888;28;109091;-61
2023/10/01 11:24:10;;;;;;;13.25;10.80;;;;;;;24.60;38.91;95420.47;6064640;28;108933;-61
2023/10/01 11:27:22;;;;;;;11.80;10.70;;;;;;;24.54;39.12;95431.63;6064647;28;108938;-61
2023/10/01 11:30:34;;;;;;;12.90;11.18;;;;;;;24.45;39.29;95421.69;6047236;28;108837;-61
2023/10/01 11:33:37;;;;;;;13.10;11.60;;;;;;;24.48;39.29;95421.06;6061464;28;109079;-61
2023/10/01 11:36:42;;;;;;;12.60;11.40;;;;;;;24.45;39.44;95427.03;6063580;28;109261;-61
2023/10/01 11:39:52;;;;;;;12.65;11.43;;;;;;;24.45;39.57;95424.38;6055770;28;108885;-60
2023/10/01 11:43:05;;;;;;;12.52;11.30;;;;;;;24.58;39.32;95419.19;6062002;28;109141;-61
2023/10/01 11:46:23;;;;;;;17.20;11.60;;;;;;;24.82;39.25;95426.81;6063512;28;108930;-60
2023/10/01 11:49:34;;;;;;;13.10;10.85;;;;;;;24.93;38.88;95433.44;6041213;28;108655;-61
2023/10/01 11:52:42;;;;;;;11.50;10.30;;;;;;;24.91;39.03;95423.06;5954304;28;110725;-61
2023/10/01 11:55:45;;;;;;;14.38;10.80;;;;;;;24.91;39.24;95422.25;6047360;28;109043;-60
2023/10/01 11:58:49;;;;;;;11.20;10.10;;;;;;;24.89;39.30;95416.44;6051596;28;108927;-60
2023/10/01 12:01:56;;;;;;;13.40;10.23;;;;;;;24.89;39.12;95413.75;6040811;28;122833;-61
2023/10/01 12:05:06;;;;;;;11.83;10.00;;;;;;;24.88;39.12;95412.97;6041039;28;109805;-60
2023/10/01 12:08:17;;;;;;;11.18;10.07;;;;;;;24.91;39.31;95412.34;6041669;28;109225;-61
2023/10/01 12:11:27;;;;;;;11.50;10.10;;;;;;;24.95;39.29;95417.84;6022587;28;108998;-61
2023/10/01 12:14:32;;;;;;;11.65;9.95;;;;;;;24.85;39.58;95397.53;6029391;28;108763;-61
2023/10/01 12:17:44;;;;;;;12.95;10.73;;;;;;;24.88;39.51;95401.47;6037354;28;108861;-59
2023/10/01 12:20:50;;;;;;;11.73;10.18;;;;;;;24.88;39.45;95407.63;6039769;28;108990;-59
2023/10/01 12:23:55;;;;;;;11.80;10.50;;;;;;;24.92;39.48;95397.84;6037232;28;109166;-60
2023/10/01 12:26:58;;;;;;;11.45;9.25;;;;;;;24.90;39.54;95389.34;6019162;28;109955;-59
2023/10/01 12:30:01;;;;;;;11.95;9.70;;;;;;;24.92;39.22;95376.44;6040378;28;108946;-59
2023/10/01 12:33:05;;;;;;;11.13;9.40;;;;;;;24.92;38.96;95389.81;6038498;28;109246;-59
2023/10/01 12:36:31;;;;;;;11.00;10.00;;;;;;;24.95;39.10;95391.88;6014648;28;108953;-59
2023/10/01 12:39:34;;;;;;;11.40;9.88;;;;;;;24.95;39.12;95391.88;6013589;28;108893;-59
2023/10/01 12:42:38;;;;;;;13.23;9.90;;;;;;;24.88;39.13;95386.22;6031003;28;109023;-60
2023/10/01 12:45:43;;;;;;;9.80;8.80;;;;;;;24.91;39.36;95390.94;6026572;28;110220;-59
2023/10/01 12:52:15;;;;;;;10.48;9.38;;;;;;;24.91;39.24;95384.78;6038658;28;109065;-59
2023/10/01 12:55:18;;;;;;;10.50;9.40;;;;;;;24.89;39.24;95381.63;6037768;28;108960;-59
2023/10/01 12:58:35;;;;;;;10.02;9.02;;;;;;;24.89;39.15;95387.78;6039341;28;108941;-59
2023/10/01 13:01:38;;;;;;;11.03;10.03;;;;;;;24.80;39.15;95378.94;6026165;28;109835;-59
2023/10/01 13:04:42;;;;;;;10.30;9.20;;;;;;;24.91;39.70;95398.16;6035992;28;109096;-59
2023/10/01 13:07:46;;;;;;;10.77;9.70;;;;;;;24.88;39.59;95417.53;6033822;28;109122;-59
2023/10/01 13:10:51;;;;;;;11.90;9.75;;;;;;;24.87;39.99;95432.81;6009007;28;109326;-61
2023/10/01 13:13:54;;;;;;;13.93;9.95;;;;;;;24.83;40.17;95423.03;6029816;28;109015;-59
2023/10/01 13:17:00;;;;;;;11.65;10.45;;;;;;;24.78;40.77;95426.66;6039338;28;108902;-59
2023/10/01 13:20:19;;;;;;;14.30;11.40;;;;;;;24.74;41.24;95442.56;6039152;28;109024;-59
2023/10/01 13:23:24;;;;;;;12.67;11.37;;;;;;;24.73;41.52;95440.19;6027016;28;109115;-60
2023/10/01 13:26:32;;;;;;;15.75;11.65;;;;;;;24.72;41.88;95434.06;6036726;28;108897;-59
2023/10/01 13:29:35;;;;;;;12.77;11.55;;;;;;;24.78;42.62;95422.09;6031543;28;109018;-59
2023/10/01 13:32:57;;;;;;;14.90;13.30;;;;;;;24.84;43.57;95428.06;6030884;28;108973;-61
2023/10/01 13:36:12;;;;;;;14.65;13.25;;;;;;;24.85;44.19;95418.16;6027814;28;109018;-60
2023/10/01 13:39:25;;;;;;;15.83;14.30;;;;;;;24.78;44.62;95407.91;6037431;28;108786;-60
2023/10/01 14:09:17;;;;;;;16.83;15.13;;;;;;;25.06;44.97;95408.41;6028552;28;108994;-60
2023/10/01 14:15:40;;;;;;;15.45;13.70;;;;;;;25.05;45.23;95404.94;6037605;28;109013;-59
2023/10/01 14:18:53;;;;;;;16.15;14.35;;;;;;;25.07;45.29;95410.78;6029433;28;109198;-61
2023/10/01 14:21:58;;;;;;;18.40;14.70;;;;;;;25.12;45.39;95409.03;6037717;28;108949;-60
2023/10/01 14:25:20;;;;;;;15.43;13.93;;;;;;;24.98;45.09;95412.66;6040273;28;109076;-59
2023/10/01 14:28:24;;;;;;;16.85;15.18;;;;;;;25.00;44.45;95409.66;6038732;28;108904;-59
2023/10/01 14:31:49;;;;;;;17.20;15.40;;;;;;;25.03;45.23;95423.22;6027650;28;109718;-60
2023/10/01 14:34:53;;;;;;;17.50;15.90;;;;;;;25.06;45.04;95422.59;6035790;28;108987;-59
2023/10/01 14:37:57;;;;;;;16.93;15.33;;;;;;;25.04;45.29;95418.66;6024182;28;108918;-59
2023/10/01 14:41:00;;;;;;;17.93;16.23;;;;;;;24.96;44.93;95424.78;6035043;28;108953;-60
2023/10/01 14:44:05;;;;;;;18.10;16.40;;;;;;;25.00;45.54;95421.16;6035045;28;109950;-59
2023/10/01 14:47:17;;;;;;;18.35;16.50;;;;;;;25.01;45.23;95428.06;6036304;28;109226;-58
2023/10/01 14:50:21;;;;;;;17.38;15.68;;;;;;;25.03;45.76;95431.25;6031421;28;108867;-59
2023/10/01 14:53:24;;;;;;;17.70;16.20;;;;;;;25.02;45.66;95431.53;6027085;28;111544;-59
2023/10/01 14:56:31;;;;;;;17.45;15.75;;;;;;;25.04;45.81;95432.81;6039776;28;110608;-60
2023/10/01 14:59:34;;;;;;;17.17;15.67;;;;;;;25.05;45.94;95437.09;6037186;28;108906;-59
2023/10/01 15:02:40;;;;;;;17.60;15.90;;;;;;;25.05;45.80;95439.75;6036770;28;109109;-60
2023/10/01 15:05:43;;;;;;;18.17;16.38;;;;;;;25.04;45.92;95440.88;6028575;28;108870;-58
2023/10/01 15:08:47;;;;;;;18.90;17.00;;;;;;;25.07;45.83;95436.75;6036017;28;109023;-58
2023/10/01 15:11:54;;;;;;;17.30;15.70;;;;;;;25.10;45.66;95449.53;6038615;28;108953;-61
2023/10/01 15:14:58;;;;;;;17.77;16.03;;;;;;;25.09;45.98;95440.69;6026132;28;111285;-61